Time;durP1;ratioP1;P1;durP2;ratioP2;P2;SDS_P1;SDS_P2;PMS_P1;PMS_P2;Temp;Humidity;BMP_temperature;BMP_pressure;BME280_temperature;BME280_humidity;BME280_pressure;Samples;Min_cycle;Max_cycle;Signal;HPM_P1;HPM_P2
2024/01/19 00:00:12;;;;;;;5.50;1.20;;;;;;;5.68;61.74;101463.31;4990097;28;20454;-47
2024/01/19 00:02:38;;;;;;;4.53;1.30;;;;;;;5.69;61.61;101454.75;4989814;28;20030;-44
2024/01/19 00:05:04;;;;;;;7.15;1.30;;;;;;;5.63;61.51;101456.19;4988581;28;20034;-46
2024/01/19 00:07:29;;;;;;;7.45;1.42;;;;;;;5.57;61.54;101468.84;4988038;28;20034;-46
2024/01/19 00:09:55;;;;;;;5.28;1.48;;;;;;;5.39;62.60;101470.66;4988208;28;20106;-47
2024/01/19 00:12:20;;;;;;;5.30;1.65;;;;;;;5.17;64.11;101472.31;4990302;28;20038;-43
2024/01/19 00:14:46;;;;;;;7.03;1.80;;;;;;;5.26;64.00;101469.22;4989663;28;20054;-45
2024/01/19 00:17:11;;;;;;;6.80;2.03;;;;;;;5.44;62.11;101477.78;4989469;28;20031;-48
2024/01/19 00:19:36;;;;;;;6.28;1.40;;;;;;;5.63;60.88;101467.41;4989306;28;20519;-46
2024/01/19 00:22:02;;;;;;;6.95;1.42;;;;;;;5.41;61.04;101471.59;4993584;28;20065;-44
2024/01/19 00:24:27;;;;;;;6.85;1.60;;;;;;;5.36;60.39;101473.13;4993354;28;20462;-43
2024/01/19 00:26:54;;;;;;;7.85;1.83;;;;;;;5.67;58.62;101471.88;4992926;28;20034;-45
2024/01/19 00:29:19;;;;;;;6.90;2.00;;;;;;;6.04;57.01;101471.75;4993222;28;20121;-45
2024/01/19 00:31:46;;;;;;;7.07;2.00;;;;;;;6.04;56.67;101476.03;4993604;28;20117;-46
2024/01/19 00:34:15;;;;;;;7.32;1.77;;;;;;;5.99;56.45;101468.09;4994070;28;20095;-46
2024/01/19 00:36:40;;;;;;;9.45;1.88;;;;;;;6.28;55.19;101471.84;4992032;28;20501;-45
2024/01/19 00:39:06;;;;;;;8.43;1.88;;;;;;;6.25;55.04;101479.53;4992102;28;20045;-51
2024/01/19 00:41:31;;;;;;;7.00;1.90;;;;;;;6.33;55.17;101472.97;4993341;28;20053;-47
2024/01/19 00:43:57;;;;;;;5.90;1.70;;;;;;;6.09;55.35;101470.25;4993989;28;20038;-48
2024/01/19 00:46:22;;;;;;;5.35;1.90;;;;;;;6.22;55.35;101478.53;4992274;28;20031;-48
2024/01/19 00:48:48;;;;;;;7.40;1.73;;;;;;;6.49;54.66;101487.38;4992868;28;20101;-44
2024/01/19 00:51:13;;;;;;;9.77;1.70;;;;;;;6.36;54.69;101488.59;4992653;28;20034;-43
2024/01/19 00:53:39;;;;;;;10.18;2.10;;;;;;;6.30;54.49;101487.47;4992533;28;20042;-46
2024/01/19 00:56:06;;;;;;;5.25;1.67;;;;;;;6.49;53.80;101487.38;4992303;28;20026;-45
2024/01/19 00:58:32;;;;;;;11.05;1.77;;;;;;;6.15;54.92;101490.34;4992475;28;20034;-45
2024/01/19 01:00:57;;;;;;;8.75;1.77;;;;;;;5.84;55.65;101493.31;4992698;28;20033;-48
2024/01/19 01:03:23;;;;;;;5.15;1.58;;;;;;;6.16;55.07;101491.22;4991882;28;20481;-47
2024/01/19 01:05:49;;;;;;;9.23;1.70;;;;;;;6.07;54.99;101497.78;4991835;28;20315;-45
2024/01/19 01:08:14;;;;;;;5.63;1.70;;;;;;;6.07;55.12;101508.13;4992313;28;20544;-45
2024/01/19 01:10:40;;;;;;;7.53;1.90;;;;;;;6.37;53.88;101508.50;4992306;28;20041;-42
2024/01/19 01:13:05;;;;;;;6.85;1.98;;;;;;;6.16;54.54;101504.16;4993003;28;20023;-44
2024/01/19 01:15:30;;;;;;;10.68;2.20;;;;;;;6.09;54.86;101505.63;4989536;28;20057;-44
2024/01/19 01:17:56;;;;;;;8.13;1.75;;;;;;;6.17;54.20;101511.09;4992582;28;20034;-47
2024/01/19 01:20:21;;;;;;;6.85;2.05;;;;;;;6.41;53.39;101512.97;4991900;28;20038;-46
2024/01/19 01:22:46;;;;;;;8.55;2.20;;;;;;;5.98;54.89;101505.16;4992460;28;20035;-45
2024/01/19 01:25:12;;;;;;;7.60;2.00;;;;;;;6.51;53.09;101507.34;4990510;28;20030;-48
2024/01/19 01:27:37;;;;;;;9.63;2.25;;;;;;;6.24;54.61;101519.19;4991680;28;20030;-44
2024/01/19 01:30:07;;;;;;;11.45;2.50;;;;;;;6.48;53.90;101512.41;4991801;28;20544;-48
2024/01/19 01:32:33;;;;;;;7.63;2.58;;;;;;;6.19;54.91;101512.94;4991892;28;20046;-49
2024/01/19 01:34:58;;;;;;;14.57;3.03;;;;;;;6.41;54.56;101509.50;4992327;28;20113;-45
2024/01/19 01:37:24;;;;;;;9.35;2.95;;;;;;;6.39;54.70;101509.47;4991488;28;20044;-45
2024/01/19 01:39:49;;;;;;;7.93;2.90;;;;;;;6.31;54.94;101520.31;4991864;28;20038;-46
2024/01/19 01:42:14;;;;;;;11.15;3.08;;;;;;;6.39;54.42;101518.94;4992022;28;20037;-46
2024/01/19 01:44:40;;;;;;;14.13;2.92;;;;;;;6.28;55.09;101520.19;4989899;28;20042;-44
2024/01/19 01:47:05;;;;;;;12.23;3.22;;;;;;;6.24;55.00;101528.66;4991370;28;20524;-43
2024/01/19 01:49:30;;;;;;;12.65;3.20;;;;;;;6.37;54.81;101538.69;4991507;28;20065;-42
2024/01/19 01:51:57;;;;;;;10.95;3.47;;;;;;;6.23;55.78;101540.69;4992409;28;20061;-45
2024/01/19 01:54:22;;;;;;;14.00;3.70;;;;;;;6.06;55.76;101533.94;4992494;28;20501;-44
2024/01/19 01:56:48;;;;;;;13.38;3.80;;;;;;;6.11;55.99;101537.59;4991777;28;20038;-45
2024/01/19 01:59:13;;;;;;;9.70;3.78;;;;;;;6.27;55.13;101540.03;4991010;28;20049;-45
2024/01/19 02:01:38;;;;;;;15.85;3.95;;;;;;;6.39;54.84;101537.94;4991664;28;20042;-43
2024/01/19 02:04:08;;;;;;;14.80;3.70;;;;;;;6.31;54.98;101541.91;4992869;28;20612;-44
2024/01/19 02:06:33;;;;;;;11.10;3.28;;;;;;;6.19;55.13;101545.69;4990971;28;20070;-44
2024/01/19 02:08:59;;;;;;;14.00;3.45;;;;;;;6.49;54.38;101552.13;4990976;28;20065;-46
2024/01/19 02:11:24;;;;;;;12.85;3.40;;;;;;;6.14;55.34;101545.53;4991004;28;20042;-49
2024/01/19 02:13:49;;;;;;;13.18;3.70;;;;;;;6.44;54.26;101559.72;4991343;28;20040;-44
2024/01/19 02:16:15;;;;;;;9.65;3.53;;;;;;;6.26;55.09;101553.78;4990557;28;20038;-44
2024/01/19 02:18:40;;;;;;;11.35;3.15;;;;;;;6.40;54.73;101551.78;4990380;28;20409;-50
2024/01/19 02:21:06;;;;;;;8.43;3.22;;;;;;;6.50;54.28;101557.38;4990625;28;20404;-43
2024/01/19 02:23:40;;;;;;;10.65;3.28;;;;;;;6.34;54.95;101559.28;4990787;28;20037;-45
2024/01/19 02:26:05;;;;;;;12.52;3.50;;;;;;;6.30;55.19;101563.44;4990709;28;20089;-45
2024/01/19 02:28:31;;;;;;;9.20;2.95;;;;;;;5.91;56.16;101572.13;4989148;28;20042;-44
2024/01/19 02:30:56;;;;;;;10.30;3.28;;;;;;;6.24;55.11;101565.78;4990876;28;20034;-45
2024/01/19 02:33:21;;;;;;;11.85;3.63;;;;;;;6.46;55.00;101571.00;4991423;28;20452;-44
2024/01/19 02:35:47;;;;;;;9.10;3.20;;;;;;;6.24;55.44;101564.91;4990312;28;20034;-47
2024/01/19 02:38:12;;;;;;;12.57;3.40;;;;;;;6.33;55.68;101570.47;4992500;28;20105;-44
2024/01/19 02:40:37;;;;;;;15.10;3.60;;;;;;;6.35;55.59;101568.81;4993509;28;20041;-43
2024/01/19 02:43:03;;;;;;;11.13;3.60;;;;;;;6.63;54.79;101573.44;4991485;28;20034;-45
2024/01/19 02:45:28;;;;;;;10.95;3.40;;;;;;;6.52;55.03;101578.19;4990550;28;20026;-45
2024/01/19 02:47:54;;;;;;;18.85;4.03;;;;;;;6.66;55.37;101571.81;4990600;28;20453;-47
2024/01/19 02:50:19;;;;;;;12.07;4.00;;;;;;;6.59;54.99;101582.75;4990336;28;20047;-50
2024/01/19 02:52:44;;;;;;;13.95;4.05;;;;;;;6.08;57.32;101582.38;4991268;28;20080;-44
2024/01/19 02:55:11;;;;;;;13.90;3.90;;;;;;;6.30;56.86;101584.16;4990923;28;20065;-49
2024/01/19 02:57:36;;;;;;;16.90;4.53;;;;;;;6.19;57.19;101585.41;4989837;28;20031;-44
2024/01/19 03:00:03;;;;;;;19.17;4.10;;;;;;;6.24;57.15;101586.50;4990999;28;20041;-46
2024/01/19 03:02:28;;;;;;;13.65;4.15;;;;;;;6.06;58.14;101589.19;4991168;28;20550;-44
2024/01/19 03:04:54;;;;;;;14.65;4.38;;;;;;;6.18;58.11;101595.72;4991728;28;20042;-44
2024/01/19 03:07:19;;;;;;;16.38;4.10;;;;;;;6.36;57.43;101594.78;4992298;28;20035;-43
2024/01/19 03:09:44;;;;;;;15.52;4.78;;;;;;;6.07;58.38;101603.03;4993370;28;20034;-48
2024/01/19 03:12:10;;;;;;;13.80;3.80;;;;;;;6.26;57.90;101596.94;4990708;28;20172;-45
2024/01/19 03:14:36;;;;;;;14.85;4.13;;;;;;;6.37;57.20;101593.97;4990165;28;20457;-45
2024/01/19 03:17:01;;;;;;;10.25;3.85;;;;;;;6.50;56.83;101598.84;4990329;28;20030;-45
2024/01/19 03:19:26;;;;;;;13.85;3.92;;;;;;;6.25;58.12;101602.91;4989993;28;20046;-45
2024/01/19 03:21:52;;;;;;;12.20;4.57;;;;;;;6.23;58.17;101602.84;4990500;28;20045;-43
2024/01/19 03:24:17;;;;;;;16.00;4.32;;;;;;;6.24;58.12;101609.81;4990630;28;20040;-46
2024/01/19 03:26:42;;;;;;;9.98;3.80;;;;;;;6.15;58.00;101608.53;4989166;28;20050;-48
2024/01/19 03:29:11;;;;;;;10.82;3.78;;;;;;;5.99;58.72;101602.69;4989882;28;20501;-46
2024/01/19 03:31:36;;;;;;;9.57;4.05;;;;;;;6.40;57.41;101606.16;4989723;28;20446;-44
2024/01/19 03:34:02;;;;;;;13.80;4.13;;;;;;;6.28;57.28;101605.66;4990388;28;20030;-44
2024/01/19 03:36:27;;;;;;;11.88;4.00;;;;;;;6.28;57.37;101606.50;4989197;28;20121;-45
2024/01/19 03:38:52;;;;;;;10.73;3.40;;;;;;;5.97;58.10;101613.81;4990508;28;20050;-45
2024/01/19 03:41:18;;;;;;;14.50;3.70;;;;;;;6.26;56.78;101612.47;4990741;28;20049;-45
2024/01/19 03:43:44;;;;;;;10.88;3.03;;;;;;;6.07;57.29;101610.78;4988530;28;20109;-43
2024/01/19 03:46:10;;;;;;;12.50;3.25;;;;;;;6.26;56.78;101609.88;4990328;28;20045;-45
2024/01/19 03:48:35;;;;;;;13.32;3.25;;;;;;;6.27;56.93;101614.22;4988342;28;20035;-43
2024/01/19 03:51:00;;;;;;;9.93;3.15;;;;;;;6.19;57.01;101618.19;4990118;28;20448;-46
2024/01/19 03:53:26;;;;;;;9.63;2.97;;;;;;;6.09;56.83;101617.81;4990205;28;20497;-52
2024/01/19 03:55:51;;;;;;;16.58;3.22;;;;;;;5.99;56.97;101612.16;4991178;28;20097;-47
2024/01/19 03:58:16;;;;;;;11.88;2.97;;;;;;;6.13;56.32;101617.94;4993710;28;20078;-44
2024/01/19 04:00:42;;;;;;;15.23;3.13;;;;;;;6.15;55.66;101618.88;4993508;28;20408;-43
2024/01/19 04:03:07;;;;;;;9.68;2.95;;;;;;;6.41;55.41;101619.16;4993729;28;20045;-44
2024/01/19 04:05:32;;;;;;;10.85;3.03;;;;;;;6.51;55.22;101612.66;4992870;28;20049;-46
2024/01/19 04:07:58;;;;;;;7.25;2.65;;;;;;;6.52;55.26;101611.84;4993983;28;20046;-44
2024/01/19 04:10:23;;;;;;;10.80;3.00;;;;;;;6.45;55.18;101635.72;4995201;28;20116;-44
2024/01/19 04:12:54;;;;;;;11.00;3.00;;;;;;;6.51;55.66;101657.59;4994396;28;20080;-46
2024/01/19 04:15:19;;;;;;;9.18;2.60;;;;;;;6.48;57.98;101654.84;4992709;28;20448;-45
2024/01/19 04:17:45;;;;;;;7.15;1.83;;;;;;;6.08;62.48;101675.56;4993629;28;20030;-45
2024/01/19 04:20:10;;;;;;;7.35;1.42;;;;;;;5.90;64.38;101666.13;4993540;28;20038;-44
2024/01/19 04:22:36;;;;;;;8.07;1.30;;;;;;;5.74;66.69;101677.41;4993948;28;20433;-45
2024/01/19 04:25:01;;;;;;;5.90;1.30;;;;;;;5.88;66.68;101691.03;4994195;28;20085;-46
2024/01/19 04:27:26;;;;;;;7.50;1.30;;;;;;;5.54;67.81;101699.81;4993208;28;20045;-45
2024/01/19 04:29:52;;;;;;;4.82;1.10;;;;;;;5.21;68.44;101703.38;4994278;28;20030;-45
2024/01/19 04:32:17;;;;;;;6.20;1.13;;;;;;;5.50;67.75;101703.03;4993976;28;20462;-45
2024/01/19 04:34:42;;;;;;;5.35;1.30;;;;;;;5.88;66.22;101691.03;4992705;28;20068;-46
2024/01/19 04:37:08;;;;;;;9.32;1.58;;;;;;;5.64;67.34;101701.09;4993317;28;20041;-47
2024/01/19 04:39:34;;;;;;;7.82;1.67;;;;;;;5.70;66.65;101701.38;4992866;28;20045;-45
2024/01/19 04:41:59;;;;;;;8.75;1.33;;;;;;;5.81;66.33;101707.03;4993246;28;20038;-43
2024/01/19 04:44:24;;;;;;;6.72;1.33;;;;;;;5.71;66.06;101714.41;4992805;28;20034;-45
2024/01/19 04:46:50;;;;;;;3.15;1.00;;;;;;;5.79;66.53;101711.28;4992658;28;20034;-45
2024/01/19 04:49:15;;;;;;;7.28;1.42;;;;;;;6.01;65.32;101714.06;4992729;28;20128;-44
2024/01/19 04:51:40;;;;;;;7.30;1.58;;;;;;;6.33;63.98;101718.97;4992655;28;20030;-44
2024/01/19 04:54:06;;;;;;;5.03;1.58;;;;;;;6.39;63.40;101715.75;4993154;28;20114;-45
2024/01/19 04:56:33;;;;;;;11.13;1.45;;;;;;;6.27;63.53;101715.22;4992131;28;20034;-44
2024/01/19 04:58:58;;;;;;;3.78;1.30;;;;;;;6.31;62.80;101722.28;4991785;28;20509;-50
2024/01/19 05:01:24;;;;;;;6.35;1.40;;;;;;;6.18;62.96;101723.47;4992352;28;20038;-47
2024/01/19 05:03:49;;;;;;;5.53;1.30;;;;;;;5.98;63.44;101727.72;4993161;28;20382;-45
2024/01/19 05:06:14;;;;;;;9.60;1.30;;;;;;;5.91;63.13;101723.13;4992073;28;20034;-45
2024/01/19 05:08:40;;;;;;;3.15;1.10;;;;;;;5.54;65.41;101737.72;4992257;28;20125;-45
2024/01/19 05:11:05;;;;;;;6.03;1.27;;;;;;;5.30;67.24;101748.66;4993572;28;20034;-45
2024/01/19 05:13:30;;;;;;;10.23;1.60;;;;;;;5.43;66.74;101744.94;4993552;28;20096;-43
2024/01/19 05:15:56;;;;;;;7.82;1.90;;;;;;;5.65;65.28;101744.28;4993058;28;20093;-45
2024/01/19 05:18:21;;;;;;;3.65;1.25;;;;;;;5.63;64.22;101751.97;4993664;28;20058;-45
2024/01/19 05:20:47;;;;;;;4.47;1.20;;;;;;;5.54;63.69;101748.06;4992976;28;20084;-44
2024/01/19 05:23:12;;;;;;;4.03;1.40;;;;;;;5.45;63.55;101755.38;4993644;28;20089;-44
2024/01/19 05:25:37;;;;;;;2.75;1.42;;;;;;;5.35;63.89;101758.34;4992092;28;20346;-44
2024/01/19 05:28:03;;;;;;;7.30;1.42;;;;;;;5.23;64.39;101771.56;4992338;28;20103;-45
2024/01/19 05:30:28;;;;;;;4.93;1.60;;;;;;;5.22;64.15;101768.09;4991731;28;20125;-44
2024/01/19 05:32:55;;;;;;;5.70;1.70;;;;;;;5.17;64.25;101779.91;4992200;28;20037;-44
2024/01/19 05:35:21;;;;;;;4.65;1.73;;;;;;;5.14;64.32;101779.72;4990899;28;20076;-47
2024/01/19 05:37:46;;;;;;;8.35;1.85;;;;;;;5.14;64.34;101776.25;4991931;28;20473;-44
2024/01/19 05:40:11;;;;;;;6.20;1.75;;;;;;;5.12;64.45;101781.34;4992519;28;20042;-46
2024/01/19 05:42:37;;;;;;;6.65;1.92;;;;;;;5.15;64.63;101785.78;4992128;28;20026;-46
2024/01/19 05:45:03;;;;;;;5.15;1.80;;;;;;;5.05;65.00;101789.63;4992130;28;20104;-46
2024/01/19 05:47:29;;;;;;;10.75;2.30;;;;;;;5.08;64.89;101796.63;4989301;28;20043;-47
2024/01/19 05:49:54;;;;;;;6.43;2.10;;;;;;;5.06;64.72;101795.69;4991912;28;20421;-47
2024/01/19 05:52:19;;;;;;;11.63;2.25;;;;;;;4.52;68.08;101799.78;4990882;28;20045;-44
2024/01/19 05:54:45;;;;;;;10.77;2.53;;;;;;;5.03;66.74;101813.59;4991424;28;20034;-44
2024/01/19 05:57:10;;;;;;;8.93;2.65;;;;;;;4.98;67.00;101813.38;4991353;28;20042;-44
2024/01/19 05:59:38;;;;;;;8.98;2.60;;;;;;;5.19;66.90;101814.44;4991099;28;20042;-49
2024/01/19 06:02:04;;;;;;;8.43;2.70;;;;;;;5.11;68.92;101827.81;4991693;28;20022;-45
2024/01/19 06:04:33;;;;;;;6.63;2.40;;;;;;;5.39;67.35;101830.94;4989831;28;20038;-49
2024/01/19 06:06:58;;;;;;;8.27;2.85;;;;;;;5.35;68.25;101828.16;4990714;28;20041;-45
2024/01/19 06:09:24;;;;;;;5.97;2.65;;;;;;;5.42;67.59;101832.81;4990877;28;20050;-48
2024/01/19 06:11:49;;;;;;;7.90;2.90;;;;;;;5.50;67.15;101823.72;4992292;28;20420;-45
2024/01/19 06:14:14;;;;;;;8.90;2.65;;;;;;;5.44;66.77;101823.41;4992479;28;20030;-44
2024/01/19 06:16:40;;;;;;;8.65;2.67;;;;;;;5.37;65.67;101822.22;4990633;28;20516;-44
2024/01/19 06:19:05;;;;;;;8.50;2.65;;;;;;;5.29;65.38;101829.63;4991597;28;20030;-45
2024/01/19 06:21:30;;;;;;;8.75;2.70;;;;;;;5.16;65.46;101832.41;4990980;28;20034;-51
2024/01/19 06:23:55;;;;;;;9.43;3.00;;;;;;;5.09;65.37;101835.47;4991552;28;20512;-45
2024/01/19 06:26:21;;;;;;;6.68;2.72;;;;;;;5.00;65.33;101847.91;4990383;28;20449;-45
2024/01/19 06:28:46;;;;;;;8.63;2.97;;;;;;;4.97;65.21;101859.81;4992574;28;20049;-44
2024/01/19 06:31:11;;;;;;;8.95;3.17;;;;;;;4.93;65.38;101866.53;4993664;28;20454;-46
2024/01/19 06:33:37;;;;;;;9.48;2.92;;;;;;;4.92;65.08;101864.75;4992811;28;20038;-46
2024/01/19 06:36:11;;;;;;;9.40;3.20;;;;;;;4.83;65.51;101870.31;4973296;28;20033;-44
2024/01/19 06:38:37;;;;;;;8.10;3.65;;;;;;;4.74;66.72;101874.13;4989132;28;20049;-45
2024/01/19 06:41:03;;;;;;;13.02;3.92;;;;;;;4.69;66.76;101873.88;4989441;28;20534;-46
2024/01/19 06:43:28;;;;;;;9.73;3.65;;;;;;;4.68;67.38;101874.69;4989105;28;20100;-45
2024/01/19 06:45:53;;;;;;;10.73;3.95;;;;;;;4.74;66.83;101879.28;4990367;28;20031;-48
2024/01/19 06:48:19;;;;;;;10.35;4.10;;;;;;;4.76;66.27;101875.97;4990657;28;20062;-44
2024/01/19 06:50:44;;;;;;;9.90;3.70;;;;;;;4.73;65.95;101878.41;4990444;28;20125;-44
2024/01/19 06:53:12;;;;;;;11.48;3.80;;;;;;;4.69;66.01;101891.09;4989756;28;20037;-45
2024/01/19 06:55:37;;;;;;;15.52;4.57;;;;;;;4.59;66.19;101889.69;4989933;28;20475;-44
2024/01/19 06:58:03;;;;;;;15.38;4.30;;;;;;;4.50;66.52;101896.97;4990638;28;20126;-46
2024/01/19 07:00:28;;;;;;;11.95;4.82;;;;;;;4.44;66.67;101900.09;4990417;28;20616;-46
2024/01/19 07:02:54;;;;;;;10.95;4.45;;;;;;;4.52;66.19;101908.22;4990760;28;20353;-45
2024/01/19 07:05:20;;;;;;;13.38;5.03;;;;;;;4.49;66.14;101908.09;4989576;28;20477;-44
2024/01/19 07:07:45;;;;;;;10.15;4.68;;;;;;;4.43;66.61;101907.75;4990384;28;20452;-45
2024/01/19 07:10:10;;;;;;;11.27;5.10;;;;;;;4.36;67.33;101916.84;4990227;28;20035;-46
2024/01/19 07:12:35;;;;;;;15.63;5.00;;;;;;;4.44;66.83;101906.94;4989878;28;20049;-45
2024/01/19 07:15:01;;;;;;;10.75;4.80;;;;;;;4.41;66.46;101909.34;4990286;28;20030;-44
2024/01/19 07:17:26;;;;;;;13.23;4.78;;;;;;;4.45;66.07;101916.47;4989554;28;20077;-47
2024/01/19 07:19:52;;;;;;;13.43;4.55;;;;;;;4.44;66.24;101917.28;4990248;28;20034;-45
2024/01/19 07:22:17;;;;;;;14.10;4.80;;;;;;;4.45;66.17;101919.06;4990419;28;20049;-45
2024/01/19 07:24:42;;;;;;;11.25;4.72;;;;;;;4.37;66.31;101923.78;4989661;28;20039;-45
2024/01/19 07:27:08;;;;;;;17.30;5.18;;;;;;;4.37;67.14;101925.50;4989877;28;20031;-43
2024/01/19 07:29:33;;;;;;;13.93;4.65;;;;;;;4.39;67.73;101931.63;4992427;28;20489;-50
2024/01/19 07:31:59;;;;;;;17.08;5.53;;;;;;;4.47;67.11;101940.66;4993858;28;20030;-44
2024/01/19 07:34:25;;;;;;;14.38;5.47;;;;;;;4.51;66.63;101946.91;4993019;28;20045;-45
2024/01/19 07:36:51;;;;;;;12.90;5.05;;;;;;;4.47;66.69;101949.31;4994780;28;20031;-45
2024/01/19 07:39:18;;;;;;;15.45;5.38;;;;;;;4.46;66.93;101950.09;4994612;28;20030;-44
2024/01/19 07:41:44;;;;;;;17.90;5.50;;;;;;;4.41;67.75;101950.66;4993905;28;20054;-46
2024/01/19 07:44:09;;;;;;;15.30;5.78;;;;;;;4.57;67.58;101955.00;4995327;28;20511;-46
2024/01/19 07:46:35;;;;;;;11.80;5.25;;;;;;;4.74;67.42;101960.25;4993365;28;20038;-43
2024/01/19 07:49:01;;;;;;;11.55;5.70;;;;;;;4.92;68.16;101965.53;4994361;28;20081;-44
2024/01/19 07:51:27;;;;;;;15.90;6.47;;;;;;;4.98;68.49;101971.03;4993985;28;20043;-46
2024/01/19 07:53:54;;;;;;;14.52;5.85;;;;;;;5.21;68.32;101967.06;4994843;28;20664;-48
2024/01/19 07:56:20;;;;;;;15.00;5.85;;;;;;;5.31;68.69;101965.00;4993496;28;20049;-48
2024/01/19 07:58:45;;;;;;;15.20;6.13;;;;;;;5.45;68.36;101970.91;4994583;28;20026;-46
2024/01/19 08:01:11;;;;;;;16.88;5.32;;;;;;;5.46;68.65;101971.78;4994891;28;20069;-49
2024/01/19 08:03:38;;;;;;;12.07;5.78;;;;;;;5.19;70.32;101986.75;4991956;28;20285;-44
2024/01/19 08:06:04;;;;;;;14.90;5.50;;;;;;;5.36;70.19;101991.13;4992282;28;20034;-47
2024/01/19 08:08:29;;;;;;;13.13;4.65;;;;;;;5.09;71.40;102006.06;4959763;28;20047;-48
2024/01/19 08:10:55;;;;;;;11.55;4.47;;;;;;;5.59;70.79;102000.06;4994082;28;20034;-47
2024/01/19 08:13:20;;;;;;;14.45;3.90;;;;;;;5.66;71.65;102003.06;4993435;28;20054;-45
2024/01/19 08:15:45;;;;;;;12.48;3.70;;;;;;;5.95;70.02;101993.31;4993223;28;20081;-45
2024/01/19 08:18:11;;;;;;;9.77;3.80;;;;;;;6.17;67.96;101988.34;4993894;28;20041;-47
2024/01/19 08:20:36;;;;;;;13.85;4.05;;;;;;;5.97;68.26;101996.88;4993549;28;20449;-44
2024/01/19 08:23:02;;;;;;;14.00;3.72;;;;;;;6.00;67.88;102002.19;4992708;28;20030;-45
2024/01/19 08:25:28;;;;;;;14.07;3.65;;;;;;;6.10;67.22;102002.69;4994019;28;20030;-44
2024/01/19 08:27:53;;;;;;;10.82;3.33;;;;;;;6.11;67.58;102011.34;4994990;28;20034;-46
2024/01/19 08:30:20;;;;;;;13.73;3.30;;;;;;;6.14;67.76;102008.03;4995045;28;20496;-47
2024/01/19 08:32:45;;;;;;;9.45;3.00;;;;;;;6.18;67.31;102021.22;4993973;28;20038;-45
2024/01/19 08:35:11;;;;;;;8.13;2.95;;;;;;;6.27;67.52;102019.09;4994092;28;20077;-44
2024/01/19 08:37:38;;;;;;;13.07;3.38;;;;;;;6.28;67.80;102014.81;4993179;28;20053;-45
2024/01/19 08:40:07;;;;;;;13.73;4.05;;;;;;;6.31;67.87;102027.88;4992364;28;20440;-43
2024/01/19 08:42:33;;;;;;;12.55;3.38;;;;;;;6.38;68.09;102022.19;4992826;28;20125;-45
2024/01/19 08:44:58;;;;;;;17.80;4.18;;;;;;;6.49;68.40;102026.19;4993230;28;20126;-50
2024/01/19 08:47:24;;;;;;;13.18;4.00;;;;;;;6.51;68.02;102022.88;4990482;28;20156;-51
2024/01/19 08:49:50;;;;;;;12.85;4.10;;;;;;;6.56;67.24;102030.84;4991934;28;20026;-45
2024/01/19 08:52:15;;;;;;;14.68;4.30;;;;;;;6.23;67.19;102030.09;4990985;28;20047;-43
2024/01/19 08:54:40;;;;;;;12.23;4.22;;;;;;;6.24;67.49;102028.38;4992409;28;20030;-48
2024/01/19 08:57:06;;;;;;;15.52;4.60;;;;;;;6.17;67.04;102029.78;4991695;28;20110;-45
2024/01/19 08:59:32;;;;;;;15.75;4.93;;;;;;;6.18;66.67;102035.84;4990584;28;20038;-46
2024/01/19 09:01:57;;;;;;;11.02;4.30;;;;;;;6.16;66.82;102030.59;4992753;28;20034;-48
2024/01/19 09:04:23;;;;;;;11.63;4.50;;;;;;;6.11;66.91;102040.72;4991330;28;20112;-44
2024/01/19 09:06:49;;;;;;;16.77;5.43;;;;;;;6.11;66.92;102043.31;4992013;28;20038;-44
2024/01/19 09:09:14;;;;;;;12.60;5.35;;;;;;;6.17;67.42;102049.59;4991124;28;20100;-45
2024/01/19 09:11:39;;;;;;;14.00;5.85;;;;;;;6.27;68.00;102044.09;4992118;28;20046;-47
2024/01/19 09:14:07;;;;;;;11.77;5.43;;;;;;;6.40;68.38;102055.09;4992460;28;20464;-46
2024/01/19 09:16:32;;;;;;;12.75;5.95;;;;;;;6.52;68.49;102047.06;4992063;28;20045;-44
2024/01/19 09:18:57;;;;;;;19.73;6.28;;;;;;;6.67;68.95;102057.25;4993024;28;20124;-48
2024/01/19 09:21:23;;;;;;;17.92;6.38;;;;;;;6.79;68.79;102055.25;4992310;28;20100;-45
2024/01/19 09:23:48;;;;;;;18.85;6.03;;;;;;;6.92;68.47;102058.50;4992473;28;20076;-45
2024/01/19 09:26:21;;;;;;;14.07;6.30;;;;;;;7.02;68.41;102056.31;4991788;28;20038;-45
2024/01/19 09:28:46;;;;;;;17.67;6.68;;;;;;;7.15;67.76;102062.16;4991852;28;20121;-49
2024/01/19 09:31:12;;;;;;;16.10;6.57;;;;;;;7.14;68.07;102059.47;4991858;28;20162;-47
2024/01/19 09:33:38;;;;;;;19.05;7.07;;;;;;;7.18;68.22;102062.31;4992922;28;20038;-44
2024/01/19 09:36:03;;;;;;;17.95;6.85;;;;;;;7.15;68.15;102058.66;4992703;28;20100;-44
2024/01/19 09:38:29;;;;;;;17.20;6.75;;;;;;;7.28;67.73;102061.91;4990818;28;20501;-45
2024/01/19 09:41:02;;;;;;;20.52;7.45;;;;;;;7.32;68.18;102066.41;4993249;28;20034;-43
2024/01/19 09:43:33;;;;;;;18.00;7.13;;;;;;;7.34;67.62;102069.97;4993858;28;20044;-44
2024/01/19 09:46:05;;;;;;;21.25;7.60;;;;;;;7.35;67.83;102073.44;4993574;28;20030;-43
2024/01/19 09:48:38;;;;;;;18.15;7.00;;;;;;;7.35;67.77;102078.63;4992638;28;20112;-45
2024/01/19 09:51:07;;;;;;;17.80;6.70;;;;;;;7.41;67.70;102083.22;4993062;28;20604;-44
2024/01/19 09:53:38;;;;;;;15.80;6.65;;;;;;;7.44;67.38;102086.81;4992604;28;20026;-43
2024/01/19 09:56:04;;;;;;;17.00;6.80;;;;;;;7.49;67.48;102081.84;4992180;28;20030;-45
2024/01/19 09:58:30;;;;;;;16.23;6.70;;;;;;;7.46;66.89;102084.31;4991912;28;20061;-46
2024/01/19 10:00:56;;;;;;;17.70;6.50;;;;;;;7.55;67.10;102088.22;4993073;28;20154;-45
2024/01/19 10:03:22;;;;;;;16.05;6.30;;;;;;;7.55;66.74;102092.50;4991921;28;20508;-48
2024/01/19 10:05:49;;;;;;;15.73;5.95;;;;;;;7.56;67.06;102094.28;4992309;28;20046;-49
2024/01/19 10:08:16;;;;;;;15.40;5.10;;;;;;;7.25;67.77;102097.19;4992473;28;20048;-43
2024/01/19 10:10:45;;;;;;;17.02;5.15;;;;;;;7.62;66.49;102097.16;4991820;28;20105;-43
2024/01/19 10:13:11;;;;;;;18.30;4.63;;;;;;;7.41;65.67;102097.06;4992465;28;20053;-46
2024/01/19 10:15:36;;;;;;;14.27;4.03;;;;;;;7.56;64.79;102100.34;4991334;28;20035;-44
2024/01/19 10:18:05;;;;;;;11.73;3.47;;;;;;;7.19;63.82;102109.88;4993307;28;20029;-48
2024/01/19 10:20:31;;;;;;;12.80;3.13;;;;;;;7.66;62.29;102119.81;4997152;28;20030;-46
2024/01/19 10:22:56;;;;;;;11.30;3.13;;;;;;;7.38;62.11;102114.22;4997921;28;20123;-44
2024/01/19 10:25:21;;;;;;;10.50;2.90;;;;;;;7.71;61.15;102115.72;4993346;28;20038;-43
2024/01/19 10:27:51;;;;;;;8.93;2.80;;;;;;;7.88;59.85;102116.47;4992589;28;20052;-43
2024/01/19 10:30:18;;;;;;;14.02;3.20;;;;;;;8.02;58.98;102129.25;4994286;28;20039;-48
2024/01/19 10:32:45;;;;;;;11.10;2.63;;;;;;;8.16;58.93;102124.66;4992294;28;20042;-44
2024/01/19 10:35:13;;;;;;;10.10;3.00;;;;;;;8.61;57.45;102125.72;4994702;28;20030;-44
2024/01/19 10:37:38;;;;;;;11.43;2.88;;;;;;;8.27;58.58;102130.28;4992997;28;20393;-44
2024/01/19 10:40:27;;;;;;;11.13;2.90;;;;;;;8.32;57.88;102129.69;4991993;28;20041;-44
2024/01/19 10:42:56;;;;;;;10.25;2.95;;;;;;;7.73;58.80;102135.75;4990832;28;20038;-46
2024/01/19 10:45:27;;;;;;;7.10;2.75;;;;;;;8.20;57.65;102129.16;4990379;28;20040;-47
2024/01/19 10:47:54;;;;;;;13.68;2.60;;;;;;;8.02;57.35;102134.44;4990024;28;20034;-44
2024/01/19 10:50:20;;;;;;;8.13;2.50;;;;;;;7.89;56.02;102139.91;4990941;28;20038;-49
2024/01/19 10:52:51;;;;;;;8.73;2.67;;;;;;;7.62;57.31;102144.72;4990986;28;20030;-46
2024/01/19 10:55:27;;;;;;;12.80;2.80;;;;;;;8.15;55.68;102144.53;4990453;28;20034;-47
2024/01/19 10:57:56;;;;;;;10.32;3.05;;;;;;;8.02;56.38;102141.34;4990718;28;20084;-43
2024/01/19 11:00:27;;;;;;;10.60;2.85;;;;;;;8.14;55.04;102152.25;4990575;28;20038;-48
2024/01/19 11:03:02;;;;;;;9.43;2.53;;;;;;;8.12;54.72;102140.91;4990750;28;20081;-44
2024/01/19 11:05:27;;;;;;;10.45;2.40;;;;;;;8.39;53.56;102149.03;4989725;28;20456;-45
2024/01/19 11:07:58;;;;;;;8.60;2.50;;;;;;;7.78;54.12;102130.75;4989396;28;20042;-45
2024/01/19 11:10:25;;;;;;;7.60;2.45;;;;;;;7.88;53.75;102142.44;4990522;28;20038;-45
2024/01/19 11:12:59;;;;;;;9.50;2.80;;;;;;;8.10;53.95;102147.75;4990980;28;20054;-46
2024/01/19 11:15:51;;;;;;;9.82;2.80;;;;;;;8.06;53.35;102144.13;4990604;28;20042;-47
2024/01/19 11:18:16;;;;;;;9.30;2.75;;;;;;;8.14;54.14;102142.75;4990961;28;20449;-44
2024/01/19 11:20:42;;;;;;;10.57;2.83;;;;;;;8.53;53.32;102155.72;4991568;28;20041;-44
2024/01/19 11:23:09;;;;;;;10.38;2.90;;;;;;;8.03;54.12;102138.81;4991749;28;20030;-43